createdAt,value
2024-03-16T00:02:00.609Z,1.30
2024-03-16T00:04:27.473Z,1.30
2024-03-16T00:06:54.268Z,1.30
2024-03-16T00:09:21.191Z,1.38
2024-03-16T00:11:48.181Z,1.23
2024-03-16T00:14:14.843Z,1.38
2024-03-16T00:16:41.475Z,1.20
2024-03-16T00:19:08.941Z,1.33
2024-03-16T00:21:35.742Z,1.80
2024-03-16T00:24:02.536Z,1.63
2024-03-16T00:26:29.190Z,1.70
2024-03-16T00:28:55.852Z,2.10
2024-03-16T00:31:22.747Z,1.77
2024-03-16T00:33:49.508Z,1.50
2024-03-16T00:36:18.488Z,1.95
2024-03-16T00:38:50.525Z,2.50
2024-03-16T00:41:21.128Z,1.75
2024-03-16T00:43:47.755Z,1.77
2024-03-16T00:46:14.555Z,2.20
2024-03-16T00:48:41.309Z,1.85
2024-03-16T00:51:08.377Z,1.60
2024-03-16T00:53:35.068Z,1.60
2024-03-16T00:56:01.786Z,1.52
2024-03-16T00:58:28.560Z,1.80
2024-03-16T01:00:55.403Z,1.48
2024-03-16T01:03:22.267Z,1.42
2024-03-16T01:05:53.599Z,2.20
2024-03-16T01:08:20.312Z,2.03
2024-03-16T01:10:52.924Z,1.90
2024-03-16T01:13:19.592Z,1.40
2024-03-16T01:15:46.323Z,1.98
2024-03-16T01:18:13.286Z,1.50
2024-03-16T01:20:44.534Z,1.75
2024-03-16T01:23:13.998Z,1.60
2024-03-16T01:25:41.173Z,1.65
2024-03-16T01:28:07.882Z,1.55
2024-03-16T01:30:34.633Z,1.75
2024-03-16T01:33:01.636Z,1.67
2024-03-16T01:35:28.318Z,1.42
2024-03-16T01:37:54.938Z,1.65
2024-03-16T01:40:25.783Z,1.23
2024-03-16T01:42:55.822Z,1.98
2024-03-16T01:45:22.692Z,1.27
2024-03-16T01:47:49.465Z,1.25
2024-03-16T01:50:19.870Z,1.55
2024-03-16T01:52:47.860Z,1.30
2024-03-16T01:55:16.268Z,1.60
2024-03-16T01:57:43.277Z,1.58
2024-03-16T02:00:12.852Z,1.60
2024-03-16T02:02:40.345Z,1.30
2024-03-16T02:05:08.133Z,1.70
2024-03-16T02:07:38.086Z,1.70
2024-03-16T02:10:06.740Z,1.35
2024-03-16T02:12:33.791Z,1.80
2024-03-16T02:15:00.914Z,1.48
2024-03-16T02:17:28.341Z,1.50
2024-03-16T02:19:55.115Z,1.42
2024-03-16T02:22:21.736Z,1.40
2024-03-16T02:24:48.436Z,1.65
2024-03-16T02:27:15.304Z,1.17
2024-03-16T02:29:41.984Z,1.42
2024-03-16T02:32:09.833Z,1.65
2024-03-16T02:34:37.811Z,2.35
2024-03-16T02:37:05.551Z,1.55
2024-03-16T02:39:33.044Z,1.95
2024-03-16T02:42:00.513Z,1.45
2024-03-16T02:44:27.755Z,1.83
2024-03-16T02:46:57.157Z,1.65
2024-03-16T02:49:24.931Z,1.30
2024-03-16T02:51:51.785Z,1.40
2024-03-16T02:54:19.027Z,1.52
2024-03-16T02:56:45.763Z,1.60
2024-03-16T02:59:13.800Z,1.80
2024-03-16T03:01:40.627Z,1.73
2024-03-16T03:04:08.630Z,2.03
2024-03-16T03:06:35.819Z,1.83
2024-03-16T03:09:08.062Z,1.80
2024-03-16T03:11:34.849Z,2.03
2024-03-16T03:14:01.965Z,2.15
2024-03-16T03:16:29.388Z,1.67
2024-03-16T03:18:56.463Z,1.80
2024-03-16T03:21:23.406Z,1.60
2024-03-16T03:23:50.233Z,2.10
2024-03-16T03:26:17.861Z,1.58
2024-03-16T03:28:44.638Z,1.83
2024-03-16T03:31:12.176Z,1.90
2024-03-16T03:33:39.417Z,1.85
2024-03-16T03:36:06.772Z,2.65
2024-03-16T03:38:34.061Z,2.22
2024-03-16T03:41:01.145Z,1.85
2024-03-16T03:43:27.923Z,2.08
2024-03-16T03:45:54.784Z,2.40
2024-03-16T03:48:24.799Z,1.88
2024-03-16T03:50:58.590Z,1.88
2024-03-16T03:53:26.491Z,2.53
2024-03-16T03:55:54.149Z,2.75
2024-03-16T03:58:22.008Z,2.70
2024-03-16T04:00:49.862Z,2.28
2024-03-16T04:03:17.226Z,2.70
2024-03-16T04:05:44.343Z,3.08
2024-03-16T04:08:11.358Z,2.95
2024-03-16T04:10:38.814Z,3.08
2024-03-16T04:13:06.055Z,3.05
2024-03-16T04:15:32.923Z,2.95
2024-03-16T04:17:59.706Z,3.45
2024-03-16T04:20:26.587Z,3.47
2024-03-16T04:22:53.385Z,3.20
2024-03-16T04:25:22.280Z,3.28
2024-03-16T04:27:49.810Z,3.60
2024-03-16T04:30:16.643Z,3.55
2024-03-16T04:32:43.492Z,4.47
2024-03-16T04:35:11.414Z,4.20
2024-03-16T04:37:38.152Z,3.28
2024-03-16T04:40:05.748Z,3.72
2024-03-16T04:42:32.909Z,3.85
2024-03-16T04:44:59.768Z,3.40
2024-03-16T04:47:26.398Z,3.63
2024-03-16T04:49:53.069Z,3.80
2024-03-16T04:52:19.830Z,4.05
2024-03-16T04:54:46.539Z,3.80
2024-03-16T04:57:13.623Z,3.75
2024-03-16T04:59:40.915Z,4.53
2024-03-16T05:02:07.777Z,4.63
2024-03-16T05:04:34.554Z,4.05
2024-03-16T05:07:01.330Z,3.95
2024-03-16T05:09:28.415Z,4.28
2024-03-16T05:11:55.883Z,5.25
2024-03-16T05:14:22.708Z,5.82
2024-03-16T05:16:49.538Z,5.78
2024-03-16T05:19:19.166Z,3.47
2024-03-16T05:21:47.297Z,4.50
2024-03-16T05:24:14.042Z,3.53
2024-03-16T05:26:40.957Z,4.43
2024-03-16T05:29:08.066Z,4.97
2024-03-16T05:31:34.686Z,4.25
2024-03-16T05:34:01.987Z,4.35
2024-03-16T05:36:29.876Z,4.75
2024-03-16T05:38:56.708Z,4.43
2024-03-16T05:41:23.488Z,4.10
2024-03-16T05:43:52.187Z,3.47
2024-03-16T05:46:19.123Z,3.47
2024-03-16T05:48:45.865Z,3.08
2024-03-16T05:51:12.494Z,3.40
2024-03-16T05:53:39.195Z,2.80
2024-03-16T05:56:06.117Z,3.15
2024-03-16T05:58:33.973Z,2.50
2024-03-16T06:01:02.252Z,3.03
2024-03-16T06:03:29.842Z,2.72
2024-03-16T06:05:56.543Z,3.00
2024-03-16T06:08:23.281Z,2.50
2024-03-16T06:10:50.032Z,2.33
2024-03-16T06:13:16.798Z,2.63
2024-03-16T06:15:43.594Z,2.80
2024-03-16T06:18:14.336Z,2.63
2024-03-16T06:24:29.403Z,2.80
2024-03-16T06:27:01.784Z,2.70
2024-03-16T06:29:28.897Z,2.90
2024-03-16T06:32:06.178Z,2.85
2024-03-16T06:34:36.930Z,2.53
2024-03-16T06:37:04.535Z,2.90
2024-03-16T06:39:31.777Z,2.53
2024-03-16T06:41:58.774Z,2.40
2024-03-16T06:44:25.472Z,2.38
2024-03-16T06:46:52.757Z,2.38
2024-03-16T06:49:19.488Z,1.85
2024-03-16T06:51:46.223Z,2.38
2024-03-16T06:54:13.651Z,2.72
2024-03-16T06:56:40.790Z,2.90
2024-03-16T06:59:07.516Z,2.95
2024-03-16T07:01:34.435Z,3.45
2024-03-16T07:04:01.438Z,3.63
2024-03-16T07:06:28.176Z,3.42
2024-03-16T07:08:56.184Z,3.80
2024-03-16T07:11:23.251Z,4.20
2024-03-16T07:13:49.961Z,3.83
2024-03-16T07:16:17.176Z,4.40
2024-03-16T07:18:44.768Z,3.78
2024-03-16T07:21:11.613Z,4.00
2024-03-16T07:23:38.265Z,3.85
2024-03-16T07:26:04.966Z,3.50
2024-03-16T07:28:34.908Z,3.30
2024-03-16T07:31:03.956Z,3.10
2024-03-16T07:33:31.354Z,3.17
2024-03-16T07:35:59.405Z,3.00
2024-03-16T07:38:26.101Z,2.80
2024-03-16T07:40:53.278Z,2.30
2024-03-16T07:43:20.571Z,2.33
2024-03-16T07:45:50.637Z,2.70
2024-03-16T07:48:17.326Z,2.33
2024-03-16T07:50:43.998Z,2.00
2024-03-16T07:53:11.315Z,2.10
2024-03-16T07:55:41.133Z,2.15
2024-03-16T07:58:08.807Z,1.88
2024-03-16T08:00:35.963Z,1.75
2024-03-16T08:03:02.751Z,1.98
2024-03-16T08:05:31.451Z,1.65
2024-03-16T08:07:58.089Z,1.70
2024-03-16T08:10:24.825Z,2.10
2024-03-16T08:12:51.738Z,1.90
2024-03-16T08:15:18.933Z,1.85
2024-03-16T08:17:45.872Z,1.77
2024-03-16T08:20:16.367Z,1.70
2024-03-16T08:22:44.534Z,1.33
2024-03-16T08:25:14.081Z,2.40
2024-03-16T08:27:41.307Z,1.30
2024-03-16T08:30:08.266Z,1.58
2024-03-16T08:32:34.933Z,1.50
2024-03-16T08:35:01.575Z,1.38
2024-03-16T08:37:28.348Z,1.20
2024-03-16T08:39:55.151Z,1.30
2024-03-16T08:42:21.964Z,1.40
2024-03-16T08:44:48.616Z,0.93
2024-03-16T08:47:15.386Z,1.10
2024-03-16T08:49:42.074Z,0.70
2024-03-16T08:52:08.862Z,0.85
2024-03-16T08:54:35.621Z,1.10
2024-03-16T08:57:02.386Z,1.20
2024-03-16T08:59:29.076Z,0.90
2024-03-16T09:01:56.060Z,0.95
2024-03-16T09:04:22.796Z,1.10
2024-03-16T09:06:49.468Z,1.40
2024-03-16T09:09:17.511Z,1.00
2024-03-16T09:11:44.709Z,0.82
2024-03-16T09:14:11.615Z,1.20
2024-03-16T09:16:41.834Z,1.15
2024-03-16T09:19:09.042Z,1.27
2024-03-16T09:21:35.881Z,1.30
2024-03-16T09:24:02.549Z,1.30
2024-03-16T09:26:29.344Z,0.90
2024-03-16T09:28:56.068Z,1.48
2024-03-16T09:31:28.502Z,1.20
2024-03-16T09:33:55.350Z,0.90
2024-03-16T09:36:22.105Z,0.85
2024-03-16T09:38:48.841Z,0.88
2024-03-16T09:41:20.966Z,0.95
